sensor_id;sensor_type;location;lat;lon;timestamp;pressure;altitude;pressure_sealevel;temperature;humidity
60319;BME280;46163;52.306;5.634;2023-04-07T00:01:33;101284.56;;;16.47;51.47
60319;BME280;46163;52.306;5.634;2023-04-07T00:04:00;101278.84;;;16.43;51.69
60319;BME280;46163;52.306;5.634;2023-04-07T00:06:27;101286.44;;;16.46;51.49
60319;BME280;46163;52.306;5.634;2023-04-07T00:09:01;101289.38;;;16.45;51.57
60319;BME280;46163;52.306;5.634;2023-04-07T00:11:44;101284.81;;;16.45;51.58
60319;BME280;46163;52.306;5.634;2023-04-07T00:14:57;101290.19;;;16.45;51.50
60319;BME280;46163;52.306;5.634;2023-04-07T00:17:59;101289.81;;;16.42;51.44
60319;BME280;46163;52.306;5.634;2023-04-07T00:20:30;101291.69;;;16.41;51.59
60319;BME280;46163;52.306;5.634;2023-04-07T00:26:30;101295.41;;;16.40;51.48
60319;BME280;46163;52.306;5.634;2023-04-07T00:29:07;101287.59;;;16.38;51.48
60319;BME280;46163;52.306;5.634;2023-04-07T00:31:34;101295.66;;;16.38;51.42
60319;BME280;46163;52.306;5.634;2023-04-07T00:34:04;101293.19;;;16.37;51.49
60319;BME280;46163;52.306;5.634;2023-04-07T00:36:51;101294.25;;;16.36;51.67
60319;BME280;46163;52.306;5.634;2023-04-07T00:39:39;101299.47;;;16.31;51.55
60319;BME280;46163;52.306;5.634;2023-04-07T00:49:15;101309.16;;;16.32;51.45
60319;BME280;46163;52.306;5.634;2023-04-07T00:58:29;101300.75;;;16.28;51.48
60319;BME280;46163;52.306;5.634;2023-04-07T01:01:08;101301.78;;;16.27;51.51
60319;BME280;46163;52.306;5.634;2023-04-07T01:04:04;101302.84;;;16.26;51.67
60319;BME280;46163;52.306;5.634;2023-04-07T01:10:08;101295.44;;;16.22;51.67
60319;BME280;46163;52.306;5.634;2023-04-07T01:16:00;101291.59;;;16.18;51.57
60319;BME280;46163;52.306;5.634;2023-04-07T01:18:43;101301.88;;;16.21;51.82
60319;BME280;46163;52.306;5.634;2023-04-07T01:35:39;101299.88;;;16.16;51.51
60319;BME280;46163;52.306;5.634;2023-04-07T01:38:12;101303.00;;;16.13;51.59
60319;BME280;46163;52.306;5.634;2023-04-07T01:52:16;101300.63;;;16.05;51.48
60319;BME280;46163;52.306;5.634;2023-04-07T01:54:45;101297.72;;;16.06;51.43
60319;BME280;46163;52.306;5.634;2023-04-07T01:57:11;101301.44;;;16.05;51.64
60319;BME280;46163;52.306;5.634;2023-04-07T01:59:36;101294.66;;;16.03;51.56
60319;BME280;46163;52.306;5.634;2023-04-07T02:02:02;101301.44;;;16.05;51.73
60319;BME280;46163;52.306;5.634;2023-04-07T02:04:32;101303.31;;;16.05;51.67
60319;BME280;46163;52.306;5.634;2023-04-07T02:07:07;101308.69;;;16.05;51.70
60319;BME280;46163;52.306;5.634;2023-04-07T02:09:37;101305.41;;;16.03;51.66
60319;BME280;46163;52.306;5.634;2023-04-07T02:12:07;101309.94;;;16.02;51.66
60319;BME280;46163;52.306;5.634;2023-04-07T02:14:34;101302.94;;;16.01;51.52
60319;BME280;46163;52.306;5.634;2023-04-07T02:17:01;101308.31;;;16.01;51.73
60319;BME280;46163;52.306;5.634;2023-04-07T02:19:28;101307.50;;;16.01;51.62
60319;BME280;46163;52.306;5.634;2023-04-07T02:21:54;101304.00;;;16.00;51.58
60319;BME280;46163;52.306;5.634;2023-04-07T02:24:21;101298.84;;;15.99;51.67
60319;BME280;46163;52.306;5.634;2023-04-07T02:26:46;101293.91;;;15.96;51.43
60319;BME280;46163;52.306;5.634;2023-04-07T02:29:12;101297.41;;;15.96;51.47
60319;BME280;46163;52.306;5.634;2023-04-07T02:31:38;101298.47;;;15.95;51.80
60319;BME280;46163;52.306;5.634;2023-04-07T02:34:03;101302.44;;;15.93;51.77
60319;BME280;46163;52.306;5.634;2023-04-07T02:36:29;101304.28;;;15.92;51.66
60319;BME280;46163;52.306;5.634;2023-04-07T02:38:55;101302.19;;;15.94;51.59
60319;BME280;46163;52.306;5.634;2023-04-07T02:41:21;101308.63;;;15.93;51.86
60319;BME280;46163;52.306;5.634;2023-04-07T02:43:46;101305.34;;;15.91;51.73
60319;BME280;46163;52.306;5.634;2023-04-07T02:46:12;101306.16;;;15.92;51.58
60319;BME280;46163;52.306;5.634;2023-04-07T02:48:37;101304.72;;;15.89;51.65
60319;BME280;46163;52.306;5.634;2023-04-07T02:51:03;101309.06;;;15.90;51.69
60319;BME280;46163;52.306;5.634;2023-04-07T02:53:29;101310.09;;;15.89;51.65
60319;BME280;46163;52.306;5.634;2023-04-07T02:55:54;101314.66;;;15.89;51.67
60319;BME280;46163;52.306;5.634;2023-04-07T02:58:20;101318.38;;;15.88;51.70
60319;BME280;46163;52.306;5.634;2023-04-07T03:00:47;101311.13;;;15.88;51.71
60319;BME280;46163;52.306;5.634;2023-04-07T03:03:15;101311.38;;;15.87;51.60
60319;BME280;46163;52.306;5.634;2023-04-07T03:05:43;101307.06;;;15.86;51.64
60319;BME280;46163;52.306;5.634;2023-04-07T03:08:08;101313.47;;;15.85;51.70
60319;BME280;46163;52.306;5.634;2023-04-07T03:10:34;101308.31;;;15.83;51.67
60319;BME280;46163;52.306;5.634;2023-04-07T03:13:00;101313.47;;;15.85;51.72
60319;BME280;46163;52.306;5.634;2023-04-07T03:15:26;101313.47;;;15.85;51.67
60319;BME280;46163;52.306;5.634;2023-04-07T03:17:51;101323.63;;;15.82;51.67
60319;BME280;46163;52.306;5.634;2023-04-07T03:20:17;101325.47;;;15.82;51.61
60319;BME280;46163;52.306;5.634;2023-04-07T03:22:43;101315.75;;;15.81;51.75
60319;BME280;46163;52.306;5.634;2023-04-07T03:25:09;101316.59;;;15.81;51.69
60319;BME280;46163;52.306;5.634;2023-04-07T03:27:35;101323.00;;;15.80;51.54
60319;BME280;46163;52.306;5.634;2023-04-07T03:30:01;101310.63;;;15.79;51.81
60319;BME280;46163;52.306;5.634;2023-04-07T03:32:26;101308.41;;;15.76;51.76
60319;BME280;46163;52.306;5.634;2023-04-07T03:34:52;101301.81;;;15.72;51.77
60319;BME280;46163;52.306;5.634;2023-04-07T03:37:17;101314.34;;;15.78;51.88
60319;BME280;46163;52.306;5.634;2023-04-07T03:39:43;101319.72;;;15.78;52.11
60319;BME280;46163;52.306;5.634;2023-04-07T03:42:09;101309.81;;;15.79;51.76
60319;BME280;46163;52.306;5.634;2023-04-07T03:44:34;101317.63;;;15.80;51.93
60319;BME280;46163;52.306;5.634;2023-04-07T03:47:00;101316.81;;;15.80;51.68
60319;BME280;46163;52.306;5.634;2023-04-07T03:49:25;101318.59;;;15.86;51.77
60319;BME280;46163;52.306;5.634;2023-04-07T03:51:51;101320.00;;;15.89;51.73
60319;BME280;46163;52.306;5.634;2023-04-07T03:54:17;101317.94;;;15.91;51.72
60319;BME280;46163;52.306;5.634;2023-04-07T03:56:42;101321.34;;;15.98;51.76
60319;BME280;46163;52.306;5.634;2023-04-07T03:59:08;101328.53;;;16.04;51.66
60319;BME280;46163;52.306;5.634;2023-04-07T04:01:33;101331.72;;;16.13;51.35
60319;BME280;46163;52.306;5.634;2023-04-07T04:04:00;101320.50;;;16.16;51.34
60319;BME280;46163;52.306;5.634;2023-04-07T04:06:25;101332.38;;;16.26;51.19
60319;BME280;46163;52.306;5.634;2023-04-07T04:08:51;101329.97;;;16.36;51.03
60319;BME280;46163;52.306;5.634;2023-04-07T04:11:16;101334.22;;;16.44;50.79
60319;BME280;46163;52.306;5.634;2023-04-07T04:13:42;101330.84;;;16.49;50.54
60319;BME280;46163;52.306;5.634;2023-04-07T04:16:08;101332.16;;;16.58;50.42
60319;BME280;46163;52.306;5.634;2023-04-07T04:18:33;101327.97;;;16.62;50.43
60319;BME280;46163;52.306;5.634;2023-04-07T04:20:59;101333.88;;;16.71;50.28
60319;BME280;46163;52.306;5.634;2023-04-07T04:23:24;101335.44;;;16.78;50.15
60319;BME280;46163;52.306;5.634;2023-04-07T04:25:50;101337.19;;;16.84;49.94
60319;BME280;46163;52.306;5.634;2023-04-07T04:28:16;101339.78;;;16.91;49.68
60319;BME280;46163;52.306;5.634;2023-04-07T04:30:41;101342.13;;;16.99;49.70
60319;BME280;46163;52.306;5.634;2023-04-07T04:33:07;101344.97;;;17.04;49.43
60319;BME280;46163;52.306;5.634;2023-04-07T04:35:33;101335.13;;;17.10;49.37
60319;BME280;46163;52.306;5.634;2023-04-07T04:37:58;101338.19;;;17.13;49.19
60319;BME280;46163;52.306;5.634;2023-04-07T04:40:24;101345.53;;;17.18;49.19
60319;BME280;46163;52.306;5.634;2023-04-07T04:42:49;101341.59;;;17.20;48.90
60319;BME280;46163;52.306;5.634;2023-04-07T04:45:15;101347.56;;;17.22;49.09
60319;BME280;46163;52.306;5.634;2023-04-07T04:47:40;101347.91;;;17.26;49.00
60319;BME280;46163;52.306;5.634;2023-04-07T04:50:09;101351.97;;;17.29;49.15
60319;BME280;46163;52.306;5.634;2023-04-07T04:52:35;101349.09;;;17.30;48.94
60319;BME280;46163;52.306;5.634;2023-04-07T04:55:00;101354.22;;;17.32;48.95
60319;BME280;46163;52.306;5.634;2023-04-07T04:57:26;101366.38;;;17.34;48.76
60319;BME280;46163;52.306;5.634;2023-04-07T04:59:52;101357.25;;;17.35;48.68
60319;BME280;46163;52.306;5.634;2023-04-07T05:02:19;101360.53;;;17.37;48.95
60319;BME280;46163;52.306;5.634;2023-04-07T05:04:46;101348.03;;;17.31;48.90
60319;BME280;46163;52.306;5.634;2023-04-07T05:07:11;101362.78;;;17.40;48.76
60319;BME280;46163;52.306;5.634;2023-04-07T05:09:37;101366.88;;;17.43;48.73
60319;BME280;46163;52.306;5.634;2023-04-07T05:12:02;101364.75;;;17.45;48.73
60319;BME280;46163;52.306;5.634;2023-04-07T05:14:28;101364.53;;;17.46;48.55
60319;BME280;46163;52.306;5.634;2023-04-07T05:16:53;101373.78;;;17.50;48.44
60319;BME280;46163;52.306;5.634;2023-04-07T05:19:19;101371.91;;;17.51;48.53
60319;BME280;46163;52.306;5.634;2023-04-07T05:21:45;101371.44;;;17.54;48.44
60319;BME280;46163;52.306;5.634;2023-04-07T05:24:10;101370.97;;;17.57;48.43
60319;BME280;46163;52.306;5.634;2023-04-07T05:26:36;101371.31;;;17.61;48.53
60319;BME280;46163;52.306;5.634;2023-04-07T05:29:04;101372.50;;;17.65;48.50
60319;BME280;46163;52.306;5.634;2023-04-07T05:31:29;101379.75;;;17.64;48.45
60319;BME280;46163;52.306;5.634;2023-04-07T05:33:59;101375.78;;;17.67;48.21
60319;BME280;46163;52.306;5.634;2023-04-07T05:36:25;101385.25;;;17.69;48.35
60319;BME280;46163;52.306;5.634;2023-04-07T05:38:51;101381.28;;;17.72;48.19
60319;BME280;46163;52.306;5.634;2023-04-07T05:41:17;101388.91;;;17.75;47.82
60319;BME280;46163;52.306;5.634;2023-04-07T05:43:45;101390.53;;;17.76;48.21
60319;BME280;46163;52.306;5.634;2023-04-07T05:46:10;101394.41;;;17.80;48.03
60319;BME280;46163;52.306;5.634;2023-04-07T05:48:35;101386.31;;;17.80;47.85
60319;BME280;46163;52.306;5.634;2023-04-07T05:51:01;101378.97;;;17.75;47.98
60319;BME280;46163;52.306;5.634;2023-04-07T05:53:27;101391.59;;;17.87;48.06
60319;BME280;46163;52.306;5.634;2023-04-07T05:55:52;101387.59;;;17.89;47.73
60319;BME280;46163;52.306;5.634;2023-04-07T05:58:18;101393.59;;;17.91;48.05
60319;BME280;46163;52.306;5.634;2023-04-07T06:00:43;101388.19;;;17.91;47.84
60319;BME280;46163;52.306;5.634;2023-04-07T06:03:09;101393.91;;;17.95;47.88
60319;BME280;46163;52.306;5.634;2023-04-07T06:05:34;101400.94;;;17.96;47.83
60319;BME280;46163;52.306;5.634;2023-04-07T06:08:00;101395.56;;;17.96;47.71
60319;BME280;46163;52.306;5.634;2023-04-07T06:10:27;101408.78;;;17.97;47.85
60319;BME280;46163;52.306;5.634;2023-04-07T06:12:53;101401.31;;;17.99;48.12
60319;BME280;46163;52.306;5.634;2023-04-07T06:15:18;101407.50;;;18.00;47.77
60319;BME280;46163;52.306;5.634;2023-04-07T06:17:46;101405.06;;;17.98;47.86
60319;BME280;46163;52.306;5.634;2023-04-07T06:20:12;101407.50;;;18.00;47.79
60319;BME280;46163;52.306;5.634;2023-04-07T06:22:37;101401.31;;;17.99;47.89
60319;BME280;46163;52.306;5.634;2023-04-07T06:25:03;101405.41;;;18.02;47.84
60319;BME280;46163;52.306;5.634;2023-04-07T06:27:31;101405.06;;;17.98;48.11
60319;BME280;46163;52.306;5.634;2023-04-07T06:29:57;101416.97;;;18.02;48.32
60319;BME280;46163;52.306;5.634;2023-04-07T06:32:23;101412.66;;;18.01;48.37
60319;BME280;46163;52.306;5.634;2023-04-07T06:34:49;101414.06;;;18.04;48.41
60319;BME280;46163;52.306;5.634;2023-04-07T06:37:15;101416.16;;;18.02;48.33
60319;BME280;46163;52.306;5.634;2023-04-07T06:39:41;101416.50;;;18.05;48.38
60319;BME280;46163;52.306;5.634;2023-04-07T06:42:06;101414.88;;;18.04;48.39
60319;BME280;46163;52.306;5.634;2023-04-07T06:44:32;101419.19;;;18.05;48.53
60319;BME280;46163;52.306;5.634;2023-04-07T06:46:57;101426.22;;;18.06;48.45
60319;BME280;46163;52.306;5.634;2023-04-07T06:49:23;101429.75;;;18.07;48.27
60319;BME280;46163;52.306;5.634;2023-04-07T06:51:48;101433.47;;;18.06;48.70
60319;BME280;46163;52.306;5.634;2023-04-07T06:54:16;101435.34;;;18.05;48.54
60319;BME280;46163;52.306;5.634;2023-04-07T06:56:42;101436.41;;;18.04;48.54
60319;BME280;46163;52.306;5.634;2023-04-07T06:59:08;101442.84;;;18.03;48.67
60319;BME280;46163;52.306;5.634;2023-04-07T07:01:36;101445.56;;;18.03;48.76
60319;BME280;46163;52.306;5.634;2023-04-07T07:04:02;101443.91;;;18.02;48.59
60319;BME280;46163;52.306;5.634;2023-04-07T07:06:27;101440.28;;;17.97;48.70
60319;BME280;46163;52.306;5.634;2023-04-07T07:08:53;101449.78;;;17.99;48.74
60319;BME280;46163;52.306;5.634;2023-04-07T07:11:19;101444.84;;;17.96;48.79
60319;BME280;46163;52.306;5.634;2023-04-07T07:13:45;101440.75;;;17.94;48.81
60319;BME280;46163;52.306;5.634;2023-04-07T07:16:10;101436.78;;;17.85;48.75
60319;BME280;46163;52.306;5.634;2023-04-07T07:18:39;101451.19;;;17.90;48.80
60319;BME280;46163;52.306;5.634;2023-04-07T07:21:04;101447.06;;;17.88;49.09
60319;BME280;46163;52.306;5.634;2023-04-07T07:23:30;101454.56;;;17.86;49.03
60319;BME280;46163;52.306;5.634;2023-04-07T07:25:55;101461.25;;;17.83;49.33
60319;BME280;46163;52.306;5.634;2023-04-07T07:28:21;101458.81;;;17.82;49.28
60319;BME280;46163;52.306;5.634;2023-04-07T07:30:48;101463.94;;;17.83;49.69
60319;BME280;46163;52.306;5.634;2023-04-07T07:33:13;101472.25;;;17.82;49.52
60319;BME280;46163;52.306;5.634;2023-04-07T07:35:39;101449.44;;;17.72;49.63
60319;BME280;46163;52.306;5.634;2023-04-07T07:38:07;101467.09;;;17.80;49.54
60319;BME280;46163;52.306;5.634;2023-04-07T07:40:33;101467.09;;;17.80;49.71
60319;BME280;46163;52.306;5.634;2023-04-07T07:42:59;101467.31;;;17.78;49.60
60319;BME280;46163;52.306;5.634;2023-04-07T07:45:27;101475.63;;;17.77;49.49
60319;BME280;46163;52.306;5.634;2023-04-07T07:47:53;101472.13;;;17.76;49.67
60319;BME280;46163;52.306;5.634;2023-04-07T07:50:18;101476.34;;;17.72;49.81
60319;BME280;46163;52.306;5.634;2023-04-07T07:52:44;101483.47;;;17.78;49.61
60319;BME280;46163;52.306;5.634;2023-04-07T07:55:10;101483.25;;;17.80;49.66
60319;BME280;46163;52.306;5.634;2023-04-07T07:57:35;101483.84;;;17.82;49.80
60319;BME280;46163;52.306;5.634;2023-04-07T08:00:02;101489.22;;;17.82;49.45
60319;BME280;46163;52.306;5.634;2023-04-07T08:02:28;101496.84;;;17.85;49.61
60319;BME280;46163;52.306;5.634;2023-04-07T08:04:57;101493.91;;;17.87;49.68
60319;BME280;46163;52.306;5.634;2023-04-07T08:07:22;101494.72;;;17.87;49.29
60319;BME280;46163;52.306;5.634;2023-04-07T08:09:48;101499.66;;;17.90;49.46
60319;BME280;46163;52.306;5.634;2023-04-07T08:12:14;101502.94;;;17.92;49.53
60319;BME280;46163;52.306;5.634;2023-04-07T08:14:39;101508.91;;;17.94;49.42
60319;BME280;46163;52.306;5.634;2023-04-07T08:17:05;101507.03;;;17.95;49.64
60319;BME280;46163;52.306;5.634;2023-04-07T08:19:31;101513.81;;;17.97;49.95
60319;BME280;46163;52.306;5.634;2023-04-07T08:21:56;101514.63;;;17.98;49.89
60319;BME280;46163;52.306;5.634;2023-04-07T08:24:22;101509.47;;;17.96;49.56
60319;BME280;46163;52.306;5.634;2023-04-07T08:26:49;101520.88;;;17.98;49.81
60319;BME280;46163;52.306;5.634;2023-04-07T08:29:15;101508.91;;;17.94;49.77
60319;BME280;46163;52.306;5.634;2023-04-07T08:31:40;101518.63;;;17.95;50.02
60319;BME280;46163;52.306;5.634;2023-04-07T08:34:06;101523.56;;;17.98;49.75
60319;BME280;46163;52.306;5.634;2023-04-07T08:36:31;101527.28;;;17.97;50.08
60319;BME280;46163;52.306;5.634;2023-04-07T08:38:57;101515.22;;;17.88;49.59
60319;BME280;46163;52.306;5.634;2023-04-07T08:41:32;101530.78;;;17.98;49.72
60319;BME280;46163;52.306;5.634;2023-04-07T08:44:01;101529.75;;;17.99;49.73
60319;BME280;46163;52.306;5.634;2023-04-07T08:46:28;101528.94;;;17.98;49.62
60319;BME280;46163;52.306;5.634;2023-04-07T08:48:55;101537.84;;;17.99;50.10
60319;BME280;46163;52.306;5.634;2023-04-07T08:51:28;101534.34;;;17.98;50.79
60319;BME280;46163;52.306;5.634;2023-04-07T08:54:04;101533.72;;;17.96;50.74
60319;BME280;46163;52.306;5.634;2023-04-07T08:56:32;101542.84;;;17.95;50.85
60319;BME280;46163;52.306;5.634;2023-04-07T08:59:00;101545.44;;;17.90;50.96
60319;BME280;46163;52.306;5.634;2023-04-07T09:01:26;101543.31;;;17.92;50.89
60319;BME280;46163;52.306;5.634;2023-04-07T09:03:52;101542.94;;;17.89;50.94
60319;BME280;46163;52.306;5.634;2023-04-07T09:06:20;101552.47;;;17.91;50.93
60319;BME280;46163;52.306;5.634;2023-04-07T09:08:46;101548.94;;;17.91;50.77
60319;BME280;46163;52.306;5.634;2023-04-07T09:11:11;101556.22;;;17.90;51.00
60319;BME280;46163;52.306;5.634;2023-04-07T09:13:37;101553.53;;;17.90;50.94
60319;BME280;46163;52.306;5.634;2023-04-07T09:16:02;101554.53;;;17.89;50.60
60319;BME280;46163;52.306;5.634;2023-04-07T09:18:28;101556.78;;;17.92;50.66
60319;BME280;46163;52.306;5.634;2023-04-07T09:20:58;101555.59;;;17.88;50.51
60319;BME280;46163;52.306;5.634;2023-04-07T09:25:58;101557.63;;;17.93;50.47
60319;BME280;46163;52.306;5.634;2023-04-07T09:28:43;101565.44;;;17.94;50.47
60319;BME280;46163;52.306;5.634;2023-04-07T09:31:09;101561.69;;;17.95;50.63
60319;BME280;46163;52.306;5.634;2023-04-07T09:33:35;101571.19;;;17.98;50.60
60319;BME280;46163;52.306;5.634;2023-04-07T09:36:04;101560.41;;;17.98;50.44
60319;BME280;46163;52.306;5.634;2023-04-07T09:38:35;101559.97;;;18.01;50.50
60319;BME280;46163;52.306;5.634;2023-04-07T09:43:36;101560.78;;;18.01;50.08
60319;BME280;46163;52.306;5.634;2023-04-07T09:49:03;101564.53;;;18.00;50.15
60319;BME280;46163;52.306;5.634;2023-04-07T09:51:32;101564.28;;;18.02;49.72
60319;BME280;46163;52.306;5.634;2023-04-07T09:54:00;101566.16;;;18.01;50.16
60319;BME280;46163;52.306;5.634;2023-04-07T09:56:25;101568.50;;;17.98;50.00
60319;BME280;46163;52.306;5.634;2023-04-07T09:58:54;101584.78;;;18.03;49.93
60319;BME280;46163;52.306;5.634;2023-04-07T10:01:20;101578.34;;;18.04;49.82
60319;BME280;46163;52.306;5.634;2023-04-07T10:03:47;101582.09;;;18.03;50.05
60319;BME280;46163;52.306;5.634;2023-04-07T10:06:13;101573.19;;;18.02;49.85
60319;BME280;46163;52.306;5.634;2023-04-07T10:08:40;101574.25;;;18.01;49.99
60319;BME280;46163;52.306;5.634;2023-04-07T10:11:07;101573.44;;;18.01;49.69
60319;BME280;46163;52.306;5.634;2023-04-07T10:13:39;101577.75;;;18.02;49.97
60319;BME280;46163;52.306;5.634;2023-04-07T10:16:09;101581.50;;;18.01;49.95
60319;BME280;46163;52.306;5.634;2023-04-07T10:18:35;101581.50;;;18.01;49.90
60319;BME280;46163;52.306;5.634;2023-04-07T10:21:02;101583.38;;;18.00;49.60
60319;BME280;46163;52.306;5.634;2023-04-07T10:26:36;101586.75;;;17.96;49.83
60319;BME280;46163;52.306;5.634;2023-04-07T10:29:09;101590.88;;;17.98;49.98
60319;BME280;46163;52.306;5.634;2023-04-07T10:31:36;101597.53;;;17.96;49.57
60319;BME280;46163;52.306;5.634;2023-04-07T10:34:03;101594.84;;;17.96;49.99
60319;BME280;46163;52.306;5.634;2023-04-07T10:36:31;101606.66;;;17.95;49.61
60319;BME280;46163;52.306;5.634;2023-04-07T10:41:42;101609.13;;;17.96;49.87
60319;BME280;46163;52.306;5.634;2023-04-07T10:44:09;101606.44;;;17.96;49.59
60319;BME280;46163;52.306;5.634;2023-04-07T10:49:20;101602.56;;;17.92;49.94
60319;BME280;46163;52.306;5.634;2023-04-07T10:52:21;101612.63;;;17.97;49.97
60319;BME280;46163;52.306;5.634;2023-04-07T10:58:20;101614.88;;;18.00;50.53
60319;BME280;46163;52.306;5.634;2023-04-07T11:03:40;101618.97;;;18.02;50.24
60319;BME280;46163;52.306;5.634;2023-04-07T11:08:44;101627.41;;;18.06;50.59
60319;BME280;46163;52.306;5.634;2023-04-07T11:11:14;101627.41;;;18.06;50.73
60319;BME280;46163;52.306;5.634;2023-04-07T11:13:47;101625.31;;;18.08;50.60
60319;BME280;46163;52.306;5.634;2023-04-07T11:16:38;101631.53;;;18.08;50.77
60319;BME280;46163;52.306;5.634;2023-04-07T11:19:04;101630.72;;;18.08;50.79
60319;BME280;46163;52.306;5.634;2023-04-07T11:21:30;101630.72;;;18.08;50.81
60319;BME280;46163;52.306;5.634;2023-04-07T11:23:55;101632.78;;;18.06;50.91
60319;BME280;46163;52.306;5.634;2023-04-07T11:26:21;101639.63;;;18.08;50.52
60319;BME280;46163;52.306;5.634;2023-04-07T11:28:48;101639.63;;;18.08;50.69
60319;BME280;46163;52.306;5.634;2023-04-07T11:31:25;101642.31;;;18.08;50.75
60319;BME280;46163;52.306;5.634;2023-04-07T11:33:52;101644.38;;;18.06;50.96
60319;BME280;46163;52.306;5.634;2023-04-07T11:36:26;101641.94;;;18.05;50.92
60319;BME280;46163;52.306;5.634;2023-04-07T11:38:53;101642.75;;;18.05;51.03
60319;BME280;46163;52.306;5.634;2023-04-07T11:41:20;101643.00;;;18.04;51.01
60319;BME280;46163;52.306;5.634;2023-04-07T11:43:45;101649.44;;;18.03;50.83
60319;BME280;46163;52.306;5.634;2023-04-07T11:46:13;101649.91;;;18.00;50.94
60319;BME280;46163;52.306;5.634;2023-04-07T11:48:41;101640.50;;;17.91;51.18
60319;BME280;46163;52.306;5.634;2023-04-07T11:51:23;101654.91;;;17.96;51.32
60319;BME280;46163;52.306;5.634;2023-04-07T11:53:58;101652.44;;;17.95;51.30
60319;BME280;46163;52.306;5.634;2023-04-07T11:56:26;101659.13;;;17.92;51.59
60319;BME280;46163;52.306;5.634;2023-04-07T11:58:53;101659.94;;;17.93;51.50
60319;BME280;46163;52.306;5.634;2023-04-07T12:01:20;101670.13;;;17.91;51.67
60319;BME280;46163;52.306;5.634;2023-04-07T12:04:02;101672.22;;;17.89;51.48
60319;BME280;46163;52.306;5.634;2023-04-07T12:06:30;101669.75;;;17.87;51.69
60319;BME280;46163;52.306;5.634;2023-04-07T12:09:00;101672.69;;;17.86;51.78
60319;BME280;46163;52.306;5.634;2023-04-07T12:11:26;101658.94;;;17.75;51.58
60319;BME280;46163;52.306;5.634;2023-04-07T12:13:52;101683.09;;;17.82;51.92
60319;BME280;46163;52.306;5.634;2023-04-07T12:16:19;101685.16;;;17.80;52.02
60319;BME280;46163;52.306;5.634;2023-04-07T12:18:45;101678.59;;;17.76;51.97
60319;BME280;46163;52.306;5.634;2023-04-07T12:21:10;101684.59;;;17.78;52.10
60319;BME280;46163;52.306;5.634;2023-04-07T12:23:36;101684.81;;;17.76;51.96
60319;BME280;46163;52.306;5.634;2023-04-07T12:26:01;101686.09;;;17.74;51.81
60319;BME280;46163;52.306;5.634;2023-04-07T12:28:27;101682.78;;;17.72;51.87
60319;BME280;46163;52.306;5.634;2023-04-07T12:30:54;101688.59;;;17.69;51.97
60319;BME280;46163;52.306;5.634;2023-04-07T12:33:19;101685.91;;;17.69;51.91
60319;BME280;46163;52.306;5.634;2023-04-07T12:35:48;101694.81;;;17.69;52.03
60319;BME280;46163;52.306;5.634;2023-04-07T12:38:14;101692.81;;;17.65;51.99
60319;BME280;46163;52.306;5.634;2023-04-07T12:40:40;101699.59;;;17.67;51.95
60319;BME280;46163;52.306;5.634;2023-04-07T12:43:06;101702.53;;;17.66;52.16
60319;BME280;46163;52.306;5.634;2023-04-07T12:45:31;101700.50;;;17.61;52.52
60319;BME280;46163;52.306;5.634;2023-04-07T12:47:57;101701.94;;;17.64;52.22
60319;BME280;46163;52.306;5.634;2023-04-07T12:50:23;101705.66;;;17.63;52.04
60319;BME280;46163;52.306;5.634;2023-04-07T12:52:50;101710.44;;;17.61;52.55
60319;BME280;46163;52.306;5.634;2023-04-07T12:55:16;101690.97;;;17.47;52.37
60319;BME280;46163;52.306;5.634;2023-04-07T12:57:42;101714.19;;;17.60;52.71
60319;BME280;46163;52.306;5.634;2023-04-07T13:00:08;101701.78;;;17.59;52.68
60319;BME280;46163;52.306;5.634;2023-04-07T13:02:34;101718.75;;;17.59;52.73
60319;BME280;46163;52.306;5.634;2023-04-07T13:05:01;101717.94;;;17.59;52.96
60319;BME280;46163;52.306;5.634;2023-04-07T13:07:27;101715.00;;;17.60;52.48
60319;BME280;46163;52.306;5.634;2023-04-07T13:09:53;101713.72;;;17.63;52.40
60319;BME280;46163;52.306;5.634;2023-04-07T13:12:19;101712.72;;;17.64;52.38
60319;BME280;46163;52.306;5.634;2023-04-07T13:14:45;101697.28;;;17.52;52.31
60319;BME280;46163;52.306;5.634;2023-04-07T13:17:13;101709.13;;;17.70;52.47
60319;BME280;46163;52.306;5.634;2023-04-07T13:19:38;101715.09;;;17.72;52.38
60319;BME280;46163;52.306;5.634;2023-04-07T13:22:04;101718.63;;;17.72;52.28
60319;BME280;46163;52.306;5.634;2023-04-07T13:24:30;101713.03;;;17.74;52.41
60319;BME280;46163;52.306;5.634;2023-04-07T13:26:56;101711.75;;;17.76;52.25
60319;BME280;46163;52.306;5.634;2023-04-07T13:29:22;101721.22;;;17.79;52.30
60319;BME280;46163;52.306;5.634;2023-04-07T13:31:48;101720.16;;;17.80;51.87
60319;BME280;46163;52.306;5.634;2023-04-07T13:34:14;101720.56;;;17.84;52.07
60319;BME280;46163;52.306;5.634;2023-04-07T13:36:40;101720.91;;;17.87;52.43
60319;BME280;46163;52.306;5.634;2023-04-07T13:39:06;101718.81;;;17.89;52.15
60319;BME280;46163;52.306;5.634;2023-04-07T13:41:33;101728.31;;;17.92;51.69
60319;BME280;46163;52.306;5.634;2023-04-07T13:43:59;101731.38;;;17.95;51.91
60319;BME280;46163;52.306;5.634;2023-04-07T13:46:26;101729.72;;;17.94;51.82
60319;BME280;46163;52.306;5.634;2023-04-07T13:48:52;101736.53;;;17.97;51.54
60319;BME280;46163;52.306;5.634;2023-04-07T13:51:18;101729.06;;;17.99;51.35
60319;BME280;46163;52.306;5.634;2023-04-07T13:53:44;101731.75;;;17.99;51.48
60319;BME280;46163;52.306;5.634;2023-04-07T13:56:10;101729.88;;;17.99;51.60
60319;BME280;46163;52.306;5.634;2023-04-07T13:58:36;101726.38;;;17.99;51.42
60319;BME280;46163;52.306;5.634;2023-04-07T14:01:02;101736.31;;;17.98;51.27
60319;BME280;46163;52.306;5.634;2023-04-07T14:03:29;101732.78;;;17.98;51.31
60319;BME280;46163;52.306;5.634;2023-04-07T14:05:54;101729.50;;;17.96;51.39
60319;BME280;46163;52.306;5.634;2023-04-07T14:08:25;101730.09;;;17.98;51.30